sensor_id;sensor_type;location;lat;lon;timestamp;temperature;humidity
8214;DHT22;4148;47.974;7.824;2022-08-23T00:01:17;19.80;99.90
8214;DHT22;4148;47.974;7.824;2022-08-23T00:03:52;19.70;99.90
8214;DHT22;4148;47.974;7.824;2022-08-23T00:06:22;19.80;99.90
8214;DHT22;4148;47.974;7.824;2022-08-23T00:08:51;19.80;99.90
8214;DHT22;4148;47.974;7.824;2022-08-23T00:11:28;19.70;99.90
8214;DHT22;4148;47.974;7.824;2022-08-23T00:13:56;19.70;99.90
8214;DHT22;4148;47.974;7.824;2022-08-23T00:16:25;19.60;99.90
8214;DHT22;4148;47.974;7.824;2022-08-23T00:18:54;19.50;1.00
8214;DHT22;4148;47.974;7.824;2022-08-23T00:21:22;19.50;1.00
8214;DHT22;4148;47.974;7.824;2022-08-23T00:23:50;19.40;99.90
8214;DHT22;4148;47.974;7.824;2022-08-23T00:26:18;19.20;99.90
8214;DHT22;4148;47.974;7.824;2022-08-23T00:28:47;19.10;99.90
8214;DHT22;4148;47.974;7.824;2022-08-23T00:31:16;19.00;99.90
8214;DHT22;4148;47.974;7.824;2022-08-23T00:33:44;18.90;99.90
8214;DHT22;4148;47.974;7.824;2022-08-23T00:36:13;18.90;99.90
8214;DHT22;4148;47.974;7.824;2022-08-23T00:38:41;18.90;99.90
8214;DHT22;4148;47.974;7.824;2022-08-23T00:41:09;18.90;99.90
8214;DHT22;4148;47.974;7.824;2022-08-23T00:43:39;18.80;99.90
8214;DHT22;4148;47.974;7.824;2022-08-23T00:46:36;18.90;99.90
8214;DHT22;4148;47.974;7.824;2022-08-23T00:49:25;18.90;99.90
8214;DHT22;4148;47.974;7.824;2022-08-23T00:51:57;19.00;1.00
8214;DHT22;4148;47.974;7.824;2022-08-23T00:54:27;19.10;1.00
8214;DHT22;4148;47.974;7.824;2022-08-23T00:56:59;19.10;1.00
8214;DHT22;4148;47.974;7.824;2022-08-23T00:59:28;19.00;1.00
8214;DHT22;4148;47.974;7.824;2022-08-23T01:01:56;18.90;1.00
8214;DHT22;4148;47.974;7.824;2022-08-23T01:04:26;18.80;99.90
8214;DHT22;4148;47.974;7.824;2022-08-23T01:07:00;18.70;99.90
8214;DHT22;4148;47.974;7.824;2022-08-23T01:09:29;18.60;99.90
8214;DHT22;4148;47.974;7.824;2022-08-23T01:12:02;18.40;1.00
8214;DHT22;4148;47.974;7.824;2022-08-23T01:14:34;18.50;99.90
8214;DHT22;4148;47.974;7.824;2022-08-23T01:17:07;18.50;1.00
8214;DHT22;4148;47.974;7.824;2022-08-23T01:19:38;18.60;99.90
8214;DHT22;4148;47.974;7.824;2022-08-23T01:22:14;18.60;99.90
8214;DHT22;4148;47.974;7.824;2022-08-23T01:24:45;18.60;95.60
8214;DHT22;4148;47.974;7.824;2022-08-23T01:27:34;18.60;99.90
8214;DHT22;4148;47.974;7.824;2022-08-23T01:30:04;18.40;99.90
8214;DHT22;4148;47.974;7.824;2022-08-23T01:32:36;18.30;99.90
8214;DHT22;4148;47.974;7.824;2022-08-23T01:35:05;18.20;1.00
8214;DHT22;4148;47.974;7.824;2022-08-23T01:37:33;18.10;99.90
8214;DHT22;4148;47.974;7.824;2022-08-23T01:40:03;18.20;1.00
8214;DHT22;4148;47.974;7.824;2022-08-23T01:42:31;18.10;99.90
8214;DHT22;4148;47.974;7.824;2022-08-23T01:44:59;18.00;99.90
8214;DHT22;4148;47.974;7.824;2022-08-23T01:47:27;17.90;99.90
8214;DHT22;4148;47.974;7.824;2022-08-23T01:49:55;17.90;99.90
8214;DHT22;4148;47.974;7.824;2022-08-23T01:52:23;17.80;1.00
8214;DHT22;4148;47.974;7.824;2022-08-23T01:54:51;17.80;1.00
8214;DHT22;4148;47.974;7.824;2022-08-23T01:57:21;17.70;1.00
8214;DHT22;4148;47.974;7.824;2022-08-23T01:59:49;17.70;1.00
8214;DHT22;4148;47.974;7.824;2022-08-23T02:02:17;17.60;99.90
8214;DHT22;4148;47.974;7.824;2022-08-23T02:04:45;17.60;1.00
8214;DHT22;4148;47.974;7.824;2022-08-23T02:07:13;17.60;99.90
8214;DHT22;4148;47.974;7.824;2022-08-23T02:09:41;17.50;84.80
8214;DHT22;4148;47.974;7.824;2022-08-23T02:12:09;17.60;1.00
8214;DHT22;4148;47.974;7.824;2022-08-23T02:14:38;17.60;30.30
8214;DHT22;4148;47.974;7.824;2022-08-23T02:17:08;17.60;99.90
8214;DHT22;4148;47.974;7.824;2022-08-23T02:19:36;17.50;1.00
8214;DHT22;4148;47.974;7.824;2022-08-23T02:22:06;17.50;1.00
8214;DHT22;4148;47.974;7.824;2022-08-23T02:24:39;17.40;1.00
8214;DHT22;4148;47.974;7.824;2022-08-23T02:27:07;17.50;99.90
8214;DHT22;4148;47.974;7.824;2022-08-23T02:29:38;17.60;1.00
8214;DHT22;4148;47.974;7.824;2022-08-23T02:32:09;17.50;1.00
8214;DHT22;4148;47.974;7.824;2022-08-23T02:34:39;17.60;99.90
8214;DHT22;4148;47.974;7.824;2022-08-23T02:37:09;17.50;99.90
8214;DHT22;4148;47.974;7.824;2022-08-23T02:39:37;17.50;99.90
8214;DHT22;4148;47.974;7.824;2022-08-23T02:42:06;17.50;1.00
8214;DHT22;4148;47.974;7.824;2022-08-23T02:44:38;17.40;99.90
8214;DHT22;4148;47.974;7.824;2022-08-23T02:47:06;17.30;99.90
8214;DHT22;4148;47.974;7.824;2022-08-23T02:49:35;17.30;99.90
8214;DHT22;4148;47.974;7.824;2022-08-23T02:52:04;17.20;99.90
8214;DHT22;4148;47.974;7.824;2022-08-23T02:54:33;17.20;1.00
8214;DHT22;4148;47.974;7.824;2022-08-23T02:57:02;17.20;99.90
8214;DHT22;4148;47.974;7.824;2022-08-23T02:59:30;17.20;1.00
8214;DHT22;4148;47.974;7.824;2022-08-23T03:01:59;17.30;1.00
8214;DHT22;4148;47.974;7.824;2022-08-23T03:04:27;17.40;99.90
8214;DHT22;4148;47.974;7.824;2022-08-23T03:06:55;17.30;99.90
8214;DHT22;4148;47.974;7.824;2022-08-23T03:09:23;17.20;99.90
8214;DHT22;4148;47.974;7.824;2022-08-23T03:11:51;17.20;99.90
8214;DHT22;4148;47.974;7.824;2022-08-23T03:14:19;17.30;1.00
8214;DHT22;4148;47.974;7.824;2022-08-23T03:16:48;17.30;99.90
8214;DHT22;4148;47.974;7.824;2022-08-23T03:19:17;17.10;1.00
8214;DHT22;4148;47.974;7.824;2022-08-23T03:21:45;17.00;1.00
8214;DHT22;4148;47.974;7.824;2022-08-23T03:24:13;17.10;99.90
8214;DHT22;4148;47.974;7.824;2022-08-23T03:26:42;17.10;1.00
8214;DHT22;4148;47.974;7.824;2022-08-23T03:29:10;17.10;1.00
8214;DHT22;4148;47.974;7.824;2022-08-23T03:31:38;17.20;1.00
8214;DHT22;4148;47.974;7.824;2022-08-23T03:34:07;17.20;99.90
8214;DHT22;4148;47.974;7.824;2022-08-23T03:36:36;17.20;1.00
8214;DHT22;4148;47.974;7.824;2022-08-23T03:39:05;17.30;99.90
8214;DHT22;4148;47.974;7.824;2022-08-23T03:41:33;17.30;91.00
8214;DHT22;4148;47.974;7.824;2022-08-23T03:44:01;17.30;99.90
8214;DHT22;4148;47.974;7.824;2022-08-23T03:46:29;17.30;99.90
8214;DHT22;4148;47.974;7.824;2022-08-23T03:49:00;17.30;59.30
8214;DHT22;4148;47.974;7.824;2022-08-23T03:51:30;17.20;99.90
8214;DHT22;4148;47.974;7.824;2022-08-23T03:54:00;17.10;1.00
8214;DHT22;4148;47.974;7.824;2022-08-23T03:56:29;17.10;1.00
8214;DHT22;4148;47.974;7.824;2022-08-23T03:59:00;17.10;1.00
8214;DHT22;4148;47.974;7.824;2022-08-23T04:01:28;17.10;1.00
8214;DHT22;4148;47.974;7.824;2022-08-23T04:03:56;17.10;99.90
8214;DHT22;4148;47.974;7.824;2022-08-23T04:06:25;17.00;1.00
8214;DHT22;4148;47.974;7.824;2022-08-23T04:08:54;16.90;99.90
8214;DHT22;4148;47.974;7.824;2022-08-23T04:11:23;16.80;1.00
8214;DHT22;4148;47.974;7.824;2022-08-23T04:13:52;16.70;1.00
8214;DHT22;4148;47.974;7.824;2022-08-23T04:16:20;16.80;99.90
8214;DHT22;4148;47.974;7.824;2022-08-23T04:18:47;16.80;1.00
8214;DHT22;4148;47.974;7.824;2022-08-23T04:21:18;16.80;21.10
8214;DHT22;4148;47.974;7.824;2022-08-23T04:23:48;16.70;99.90
8214;DHT22;4148;47.974;7.824;2022-08-23T04:26:16;16.60;1.00
8214;DHT22;4148;47.974;7.824;2022-08-23T04:28:47;16.60;1.00
8214;DHT22;4148;47.974;7.824;2022-08-23T04:31:16;16.80;99.90
8214;DHT22;4148;47.974;7.824;2022-08-23T04:33:44;16.80;1.00
8214;DHT22;4148;47.974;7.824;2022-08-23T04:36:18;16.60;99.20
8214;DHT22;4148;47.974;7.824;2022-08-23T04:38:49;16.50;95.10
8214;DHT22;4148;47.974;7.824;2022-08-23T04:41:17;16.50;99.90
8214;DHT22;4148;47.974;7.824;2022-08-23T04:44:04;16.40;99.90
8214;DHT22;4148;47.974;7.824;2022-08-23T04:46:32;16.40;99.90
8214;DHT22;4148;47.974;7.824;2022-08-23T04:49:01;16.30;99.90
8214;DHT22;4148;47.974;7.824;2022-08-23T04:51:29;16.30;99.90
8214;DHT22;4148;47.974;7.824;2022-08-23T04:53:57;16.30;1.00
8214;DHT22;4148;47.974;7.824;2022-08-23T04:56:25;16.50;48.90
8214;DHT22;4148;47.974;7.824;2022-08-23T04:58:54;16.60;1.00
8214;DHT22;4148;47.974;7.824;2022-08-23T05:01:23;16.80;1.00
8214;DHT22;4148;47.974;7.824;2022-08-23T05:03:51;16.80;1.00
8214;DHT22;4148;47.974;7.824;2022-08-23T05:06:21;16.60;99.90
8214;DHT22;4148;47.974;7.824;2022-08-23T05:08:49;16.60;99.90
8214;DHT22;4148;47.974;7.824;2022-08-23T05:11:17;16.60;99.90
8214;DHT22;4148;47.974;7.824;2022-08-23T05:13:46;16.60;99.90
8214;DHT22;4148;47.974;7.824;2022-08-23T05:16:15;16.60;99.90
8214;DHT22;4148;47.974;7.824;2022-08-23T05:18:44;16.50;99.90
8214;DHT22;4148;47.974;7.824;2022-08-23T05:21:14;16.40;99.90
8214;DHT22;4148;47.974;7.824;2022-08-23T05:23:42;16.40;99.90
8214;DHT22;4148;47.974;7.824;2022-08-23T05:26:16;16.40;99.90
8214;DHT22;4148;47.974;7.824;2022-08-23T05:28:46;16.40;99.90
8214;DHT22;4148;47.974;7.824;2022-08-23T05:31:16;16.40;99.90
8214;DHT22;4148;47.974;7.824;2022-08-23T05:33:47;16.40;1.00
8214;DHT22;4148;47.974;7.824;2022-08-23T05:36:16;16.50;30.40
8214;DHT22;4148;47.974;7.824;2022-08-23T05:38:45;16.60;99.90
8214;DHT22;4148;47.974;7.824;2022-08-23T05:41:13;16.60;99.90
8214;DHT22;4148;47.974;7.824;2022-08-23T05:43:41;16.70;1.00
8214;DHT22;4148;47.974;7.824;2022-08-23T05:46:11;16.80;99.90
8214;DHT22;4148;47.974;7.824;2022-08-23T05:48:42;16.90;99.90
8214;DHT22;4148;47.974;7.824;2022-08-23T05:51:15;16.90;99.90
8214;DHT22;4148;47.974;7.824;2022-08-23T05:53:44;16.90;99.90
8214;DHT22;4148;47.974;7.824;2022-08-23T05:56:15;16.90;99.90
8214;DHT22;4148;47.974;7.824;2022-08-23T05:58:43;17.00;99.90
8214;DHT22;4148;47.974;7.824;2022-08-23T06:01:13;17.10;99.90
8214;DHT22;4148;47.974;7.824;2022-08-23T06:03:42;17.10;99.90
8214;DHT22;4148;47.974;7.824;2022-08-23T06:06:11;17.10;99.90
8214;DHT22;4148;47.974;7.824;2022-08-23T06:08:42;17.20;99.90
8214;DHT22;4148;47.974;7.824;2022-08-23T06:11:14;17.20;99.90
8214;DHT22;4148;47.974;7.824;2022-08-23T06:13:45;17.30;99.90
8214;DHT22;4148;47.974;7.824;2022-08-23T06:16:15;17.50;1.00
8214;DHT22;4148;47.974;7.824;2022-08-23T06:18:44;17.50;99.90
8214;DHT22;4148;47.974;7.824;2022-08-23T06:21:13;17.60;99.90
8214;DHT22;4148;47.974;7.824;2022-08-23T06:23:44;17.60;1.00
8214;DHT22;4148;47.974;7.824;2022-08-23T06:26:15;17.70;99.90
8214;DHT22;4148;47.974;7.824;2022-08-23T06:28:44;17.80;99.90
8214;DHT22;4148;47.974;7.824;2022-08-23T06:31:17;17.90;99.90
8214;DHT22;4148;47.974;7.824;2022-08-23T06:34:06;18.00;99.90
8214;DHT22;4148;47.974;7.824;2022-08-23T06:36:35;18.10;99.90
8214;DHT22;4148;47.974;7.824;2022-08-23T06:39:06;18.10;99.90
8214;DHT22;4148;47.974;7.824;2022-08-23T06:41:35;18.20;99.90
8214;DHT22;4148;47.974;7.824;2022-08-23T06:44:03;18.30;42.30
8214;DHT22;4148;47.974;7.824;2022-08-23T06:46:32;18.40;99.90
8214;DHT22;4148;47.974;7.824;2022-08-23T06:49:00;18.50;99.90
8214;DHT22;4148;47.974;7.824;2022-08-23T06:51:33;18.70;1.00
8214;DHT22;4148;47.974;7.824;2022-08-23T06:54:07;18.80;99.90
8214;DHT22;4148;47.974;7.824;2022-08-23T06:56:39;18.80;99.90
8214;DHT22;4148;47.974;7.824;2022-08-23T06:59:07;19.00;99.90
8214;DHT22;4148;47.974;7.824;2022-08-23T07:01:37;19.00;99.90
8214;DHT22;4148;47.974;7.824;2022-08-23T07:04:13;19.10;99.90
8214;DHT22;4148;47.974;7.824;2022-08-23T07:06:42;19.20;1.00
8214;DHT22;4148;47.974;7.824;2022-08-23T07:09:12;19.30;11.30
8214;DHT22;4148;47.974;7.824;2022-08-23T07:11:40;19.40;99.90
8214;DHT22;4148;47.974;7.824;2022-08-23T07:14:11;19.60;99.90
8214;DHT22;4148;47.974;7.824;2022-08-23T07:16:41;19.60;1.00
8214;DHT22;4148;47.974;7.824;2022-08-23T07:19:10;19.70;1.00
8214;DHT22;4148;47.974;7.824;2022-08-23T07:21:39;19.80;47.40
8214;DHT22;4148;47.974;7.824;2022-08-23T07:24:07;19.90;25.40
8214;DHT22;4148;47.974;7.824;2022-08-23T07:26:36;20.10;1.00
8214;DHT22;4148;47.974;7.824;2022-08-23T07:29:06;20.20;1.00
8214;DHT22;4148;47.974;7.824;2022-08-23T07:31:38;20.30;1.00
8214;DHT22;4148;47.974;7.824;2022-08-23T07:34:06;20.40;1.00
8214;DHT22;4148;47.974;7.824;2022-08-23T07:36:35;20.50;1.00
8214;DHT22;4148;47.974;7.824;2022-08-23T07:39:03;20.70;99.90
8214;DHT22;4148;47.974;7.824;2022-08-23T07:41:32;20.80;99.90
8214;DHT22;4148;47.974;7.824;2022-08-23T07:44:03;21.10;99.90
8214;DHT22;4148;47.974;7.824;2022-08-23T07:46:32;21.20;99.90
8214;DHT22;4148;47.974;7.824;2022-08-23T07:49:01;21.50;99.90
8214;DHT22;4148;47.974;7.824;2022-08-23T07:51:31;21.70;99.90
8214;DHT22;4148;47.974;7.824;2022-08-23T07:54:00;22.10;53.00
8214;DHT22;4148;47.974;7.824;2022-08-23T07:56:29;22.50;1.00
8214;DHT22;4148;47.974;7.824;2022-08-23T07:58:57;23.10;33.90
8214;DHT22;4148;47.974;7.824;2022-08-23T08:01:29;23.90;1.00
8214;DHT22;4148;47.974;7.824;2022-08-23T08:03:58;24.50;1.00
8214;DHT22;4148;47.974;7.824;2022-08-23T08:06:29;25.10;99.90
8214;DHT22;4148;47.974;7.824;2022-08-23T08:08:58;25.80;99.90
8214;DHT22;4148;47.974;7.824;2022-08-23T08:11:28;26.40;99.90
8214;DHT22;4148;47.974;7.824;2022-08-23T08:14:02;26.80;99.90
8214;DHT22;4148;47.974;7.824;2022-08-23T08:16:34;27.20;99.90
8214;DHT22;4148;47.974;7.824;2022-08-23T08:19:05;27.60;99.90
8214;DHT22;4148;47.974;7.824;2022-08-23T08:21:35;28.10;99.90
8214;DHT22;4148;47.974;7.824;2022-08-23T08:24:08;28.50;99.90
8214;DHT22;4148;47.974;7.824;2022-08-23T08:26:39;28.50;99.90
8214;DHT22;4148;47.974;7.824;2022-08-23T08:29:08;28.70;99.90
8214;DHT22;4148;47.974;7.824;2022-08-23T08:31:39;28.90;99.90
8214;DHT22;4148;47.974;7.824;2022-08-23T08:34:08;29.10;99.90
8214;DHT22;4148;47.974;7.824;2022-08-23T08:36:38;29.10;99.90
8214;DHT22;4148;47.974;7.824;2022-08-23T08:39:09;29.20;99.90
8214;DHT22;4148;47.974;7.824;2022-08-23T08:41:50;29.40;99.90
8214;DHT22;4148;47.974;7.824;2022-08-23T08:44:37;29.60;99.90
8214;DHT22;4148;47.974;7.824;2022-08-23T08:47:14;29.60;99.90
8214;DHT22;4148;47.974;7.824;2022-08-23T08:49:48;29.80;99.90
8214;DHT22;4148;47.974;7.824;2022-08-23T08:52:23;29.80;99.90
8214;DHT22;4148;47.974;7.824;2022-08-23T08:55:02;29.90;99.90
8214;DHT22;4148;47.974;7.824;2022-08-23T08:57:36;30.40;99.90
8214;DHT22;4148;47.974;7.824;2022-08-23T09:00:08;30.70;99.90
8214;DHT22;4148;47.974;7.824;2022-08-23T09:02:40;30.60;99.90
8214;DHT22;4148;47.974;7.824;2022-08-23T09:05:12;30.50;99.90
8214;DHT22;4148;47.974;7.824;2022-08-23T09:07:49;30.20;99.90
8214;DHT22;4148;47.974;7.824;2022-08-23T09:10:46;30.30;99.90
8214;DHT22;4148;47.974;7.824;2022-08-23T09:16:20;30.70;99.90
8214;DHT22;4148;47.974;7.824;2022-08-23T09:18:51;30.70;99.90
8214;DHT22;4148;47.974;7.824;2022-08-23T09:21:20;31.00;99.90
8214;DHT22;4148;47.974;7.824;2022-08-23T09:23:50;31.10;99.90
8214;DHT22;4148;47.974;7.824;2022-08-23T09:26:29;31.20;99.90
8214;DHT22;4148;47.974;7.824;2022-08-23T09:29:00;31.20;99.90
8214;DHT22;4148;47.974;7.824;2022-08-23T09:31:36;31.10;99.90
8214;DHT22;4148;47.974;7.824;2022-08-23T09:34:07;31.20;99.90
8214;DHT22;4148;47.974;7.824;2022-08-23T09:36:36;31.20;99.90
8214;DHT22;4148;47.974;7.824;2022-08-23T09:39:07;31.40;99.90
8214;DHT22;4148;47.974;7.824;2022-08-23T09:41:37;31.30;99.90
8214;DHT22;4148;47.974;7.824;2022-08-23T09:44:07;31.20;99.90
8214;DHT22;4148;47.974;7.824;2022-08-23T09:46:36;31.60;99.90
8214;DHT22;4148;47.974;7.824;2022-08-23T09:49:26;31.80;99.90
8214;DHT22;4148;47.974;7.824;2022-08-23T09:51:57;32.00;99.90
8214;DHT22;4148;47.974;7.824;2022-08-23T09:54:29;32.10;99.90
8214;DHT22;4148;47.974;7.824;2022-08-23T09:56:59;32.00;99.90
8214;DHT22;4148;47.974;7.824;2022-08-23T09:59:37;32.00;99.90
8214;DHT22;4148;47.974;7.824;2022-08-23T10:02:13;31.90;99.90
8214;DHT22;4148;47.974;7.824;2022-08-23T10:04:46;32.00;99.90
8214;DHT22;4148;47.974;7.824;2022-08-23T10:07:28;32.20;99.90
8214;DHT22;4148;47.974;7.824;2022-08-23T10:10:12;32.40;99.90
8214;DHT22;4148;47.974;7.824;2022-08-23T10:12:40;32.30;99.90
8214;DHT22;4148;47.974;7.824;2022-08-23T10:15:09;32.20;99.90
8214;DHT22;4148;47.974;7.824;2022-08-23T10:17:41;32.40;99.90
8214;DHT22;4148;47.974;7.824;2022-08-23T10:20:19;32.60;99.90
8214;DHT22;4148;47.974;7.824;2022-08-23T10:23:01;32.60;99.90
8214;DHT22;4148;47.974;7.824;2022-08-23T10:25:37;32.60;99.90
8214;DHT22;4148;47.974;7.824;2022-08-23T10:28:12;32.50;99.90
8214;DHT22;4148;47.974;7.824;2022-08-23T10:31:12;32.40;99.90
8214;DHT22;4148;47.974;7.824;2022-08-23T10:33:45;32.80;99.90
8214;DHT22;4148;47.974;7.824;2022-08-23T10:36:22;32.80;99.90
8214;DHT22;4148;47.974;7.824;2022-08-23T10:38:55;32.80;99.90
8214;DHT22;4148;47.974;7.824;2022-08-23T10:41:39;32.70;99.90
8214;DHT22;4148;47.974;7.824;2022-08-23T10:44:21;32.80;99.90
8214;DHT22;4148;47.974;7.824;2022-08-23T10:46:57;32.80;99.90
8214;DHT22;4148;47.974;7.824;2022-08-23T10:49:28;33.00;99.90
8214;DHT22;4148;47.974;7.824;2022-08-23T10:52:00;33.10;99.90
8214;DHT22;4148;47.974;7.824;2022-08-23T10:54:35;33.20;99.90
8214;DHT22;4148;47.974;7.824;2022-08-23T10:57:14;33.10;99.90
8214;DHT22;4148;47.974;7.824;2022-08-23T10:59:43;33.00;99.90
8214;DHT22;4148;47.974;7.824;2022-08-23T11:02:18;33.00;99.90
8214;DHT22;4148;47.974;7.824;2022-08-23T11:04:53;33.20;99.90
8214;DHT22;4148;47.974;7.824;2022-08-23T11:07:28;33.00;99.90
8214;DHT22;4148;47.974;7.824;2022-08-23T11:10:08;33.00;99.90
8214;DHT22;4148;47.974;7.824;2022-08-23T11:12:52;32.90;99.90
8214;DHT22;4148;47.974;7.824;2022-08-23T11:15:36;32.90;99.90
8214;DHT22;4148;47.974;7.824;2022-08-23T11:18:33;32.90;99.90
8214;DHT22;4148;47.974;7.824;2022-08-23T11:21:05;33.10;99.90
8214;DHT22;4148;47.974;7.824;2022-08-23T11:23:50;33.40;99.90
8214;DHT22;4148;47.974;7.824;2022-08-23T11:29:35;33.60;99.90
8214;DHT22;4148;47.974;7.824;2022-08-23T11:32:30;33.40;99.90
8214;DHT22;4148;47.974;7.824;2022-08-23T11:35:05;33.30;99.90
8214;DHT22;4148;47.974;7.824;2022-08-23T11:37:49;33.10;99.90
8214;DHT22;4148;47.974;7.824;2022-08-23T11:40:54;32.80;99.90
8214;DHT22;4148;47.974;7.824;2022-08-23T11:43:27;32.80;99.90
8214;DHT22;4148;47.974;7.824;2022-08-23T11:49:16;32.30;99.90
8214;DHT22;4148;47.974;7.824;2022-08-23T11:51:54;32.30;99.90
8214;DHT22;4148;47.974;7.824;2022-08-23T11:54:37;32.40;99.90
8214;DHT22;4148;47.974;7.824;2022-08-23T11:57:24;32.30;99.90
8214;DHT22;4148;47.974;7.824;2022-08-23T12:00:14;32.20;99.90
8214;DHT22;4148;47.974;7.824;2022-08-23T12:02:55;32.30;99.90
8214;DHT22;4148;47.974;7.824;2022-08-23T12:08:51;31.90;99.90
8214;DHT22;4148;47.974;7.824;2022-08-23T12:11:22;31.90;99.90
8214;DHT22;4148;47.974;7.824;2022-08-23T12:14:01;31.80;99.90
8214;DHT22;4148;47.974;7.824;2022-08-23T12:16:48;31.80;99.90
8214;DHT22;4148;47.974;7.824;2022-08-23T12:19:29;31.80;99.90
8214;DHT22;4148;47.974;7.824;2022-08-23T12:22:08;31.80;99.90
8214;DHT22;4148;47.974;7.824;2022-08-23T12:24:41;31.70;99.90
8214;DHT22;4148;47.974;7.824;2022-08-23T12:27:20;31.70;99.90
8214;DHT22;4148;47.974;7.824;2022-08-23T12:29:58;31.60;99.90
8214;DHT22;4148;47.974;7.824;2022-08-23T12:32:34;31.50;99.90
8214;DHT22;4148;47.974;7.824;2022-08-23T12:35:24;31.30;99.90
8214;DHT22;4148;47.974;7.824;2022-08-23T12:37:59;31.40;99.90
8214;DHT22;4148;47.974;7.824;2022-08-23T12:40:33;31.40;99.90
8214;DHT22;4148;47.974;7.824;2022-08-23T12:43:08;31.10;99.90
8214;DHT22;4148;47.974;7.824;2022-08-23T12:45:49;30.80;99.90
8214;DHT22;4148;47.974;7.824;2022-08-23T12:48:19;30.60;99.90
8214;DHT22;4148;47.974;7.824;2022-08-23T12:50:52;30.40;99.90
8214;DHT22;4148;47.974;7.824;2022-08-23T12:53:26;30.40;99.90
8214;DHT22;4148;47.974;7.824;2022-08-23T12:56:00;30.40;99.90
8214;DHT22;4148;47.974;7.824;2022-08-23T12:58:30;30.40;99.90
8214;DHT22;4148;47.974;7.824;2022-08-23T13:01:03;30.50;99.90
8214;DHT22;4148;47.974;7.824;2022-08-23T13:03:35;30.40;99.90
8214;DHT22;4148;47.974;7.824;2022-08-23T13:06:07;30.40;99.90
8214;DHT22;4148;47.974;7.824;2022-08-23T13:08:40;30.30;99.90
8214;DHT22;4148;47.974;7.824;2022-08-23T13:11:10;30.30;99.90
8214;DHT22;4148;47.974;7.824;2022-08-23T13:13:42;30.20;99.90
8214;DHT22;4148;47.974;7.824;2022-08-23T13:16:26;30.20;99.90
8214;DHT22;4148;47.974;7.824;2022-08-23T13:19:06;30.10;99.90
8214;DHT22;4148;47.974;7.824;2022-08-23T13:21:36;30.10;99.90
8214;DHT22;4148;47.974;7.824;2022-08-23T13:24:32;30.10;99.90
8214;DHT22;4148;47.974;7.824;2022-08-23T13:27:14;30.20;99.90
8214;DHT22;4148;47.974;7.824;2022-08-23T13:29:51;29.90;99.90
8214;DHT22;4148;47.974;7.824;2022-08-23T13:32:33;29.90;99.90
8214;DHT22;4148;47.974;7.824;2022-08-23T13:35:21;30.00;99.90
8214;DHT22;4148;47.974;7.824;2022-08-23T13:37:50;29.90;99.90
8214;DHT22;4148;47.974;7.824;2022-08-23T13:40:23;29.90;99.90
8214;DHT22;4148;47.974;7.824;2022-08-23T13:42:56;29.90;99.90
8214;DHT22;4148;47.974;7.824;2022-08-23T13:45:26;30.00;99.90
8214;DHT22;4148;47.974;7.824;2022-08-23T13:47:59;30.10;99.90
8214;DHT22;4148;47.974;7.824;2022-08-23T13:50:30;30.00;99.90
8214;DHT22;4148;47.974;7.824;2022-08-23T13:53:00;30.10;99.90
8214;DHT22;4148;47.974;7.824;2022-08-23T13:55:43;30.00;99.90
8214;DHT22;4148;47.974;7.824;2022-08-23T13:58:16;30.00;99.90
8214;DHT22;4148;47.974;7.824;2022-08-23T14:00:50;30.00;99.90
8214;DHT22;4148;47.974;7.824;2022-08-23T14:03:23;29.80;99.90
8214;DHT22;4148;47.974;7.824;2022-08-23T14:05:51;29.90;99.90
8214;DHT22;4148;47.974;7.824;2022-08-23T14:08:20;30.00;99.90
8214;DHT22;4148;47.974;7.824;2022-08-23T14:10:48;30.10;99.90
8214;DHT22;4148;47.974;7.824;2022-08-23T14:13:17;30.00;99.90
8214;DHT22;4148;47.974;7.824;2022-08-23T14:15:45;30.20;99.90
8214;DHT22;4148;47.974;7.824;2022-08-23T14:18:35;30.20;99.90
8214;DHT22;4148;47.974;7.824;2022-08-23T14:21:03;30.10;99.90
8214;DHT22;4148;47.974;7.824;2022-08-23T14:23:31;30.00;99.90
8214;DHT22;4148;47.974;7.824;2022-08-23T14:25:58;30.00;99.90
8214;DHT22;4148;47.974;7.824;2022-08-23T14:28:28;30.00;99.90
8214;DHT22;4148;47.974;7.824;2022-08-23T14:30:57;30.00;99.90
8214;DHT22;4148;47.974;7.824;2022-08-23T14:33:25;29.90;99.90
8214;DHT22;4148;47.974;7.824;2022-08-23T14:35:54;29.90;99.90
8214;DHT22;4148;47.974;7.824;2022-08-23T14:38:23;29.90;99.90
8214;DHT22;4148;47.974;7.824;2022-08-23T14:40:52;29.80;99.90
8214;DHT22;4148;47.974;7.824;2022-08-23T14:43:21;29.70;99.90
8214;DHT22;4148;47.974;7.824;2022-08-23T14:45:53;29.70;99.90
8214;DHT22;4148;47.974;7.824;2022-08-23T14:48:21;29.70;99.90
8214;DHT22;4148;47.974;7.824;2022-08-23T14:50:51;29.70;99.90
8214;DHT22;4148;47.974;7.824;2022-08-23T14:53:23;29.80;99.90
8214;DHT22;4148;47.974;7.824;2022-08-23T14:55:51;29.80;99.90
8214;DHT22;4148;47.974;7.824;2022-08-23T14:58:39;29.80;99.90
8214;DHT22;4148;47.974;7.824;2022-08-23T15:01:08;29.90;99.90
8214;DHT22;4148;47.974;7.824;2022-08-23T15:03:38;29.80;99.90
8214;DHT22;4148;47.974;7.824;2022-08-23T15:06:07;29.80;99.90
8214;DHT22;4148;47.974;7.824;2022-08-23T15:08:37;29.90;99.90
8214;DHT22;4148;47.974;7.824;2022-08-23T15:11:05;29.80;99.90
8214;DHT22;4148;47.974;7.824;2022-08-23T15:13:54;29.80;99.90
8214;DHT22;4148;47.974;7.824;2022-08-23T15:16:26;29.70;99.90
8214;DHT22;4148;47.974;7.824;2022-08-23T15:18:55;29.70;99.90
8214;DHT22;4148;47.974;7.824;2022-08-23T15:21:23;29.70;99.90
8214;DHT22;4148;47.974;7.824;2022-08-23T15:23:52;29.70;99.90
8214;DHT22;4148;47.974;7.824;2022-08-23T15:26:23;29.70;99.90
8214;DHT22;4148;47.974;7.824;2022-08-23T15:28:51;29.60;99.90
8214;DHT22;4148;47.974;7.824;2022-08-23T15:31:20;29.50;99.90
8214;DHT22;4148;47.974;7.824;2022-08-23T15:33:48;29.50;99.90
8214;DHT22;4148;47.974;7.824;2022-08-23T15:36:16;29.60;99.90
8214;DHT22;4148;47.974;7.824;2022-08-23T15:38:46;29.60;99.90
8214;DHT22;4148;47.974;7.824;2022-08-23T15:41:16;29.70;99.90
8214;DHT22;4148;47.974;7.824;2022-08-23T15:43:45;29.80;99.90
8214;DHT22;4148;47.974;7.824;2022-08-23T15:46:17;29.80;99.90
8214;DHT22;4148;47.974;7.824;2022-08-23T15:48:47;29.80;99.90
8214;DHT22;4148;47.974;7.824;2022-08-23T15:51:16;29.80;99.90
8214;DHT22;4148;47.974;7.824;2022-08-23T15:53:45;29.70;99.90
8214;DHT22;4148;47.974;7.824;2022-08-23T15:56:17;29.70;99.90
8214;DHT22;4148;47.974;7.824;2022-08-23T15:58:45;29.70;99.90
8214;DHT22;4148;47.974;7.824;2022-08-23T16:01:14;29.70;99.90
8214;DHT22;4148;47.974;7.824;2022-08-23T16:03:48;29.70;99.90
8214;DHT22;4148;47.974;7.824;2022-08-23T16:06:16;29.60;99.90
8214;DHT22;4148;47.974;7.824;2022-08-23T16:08:47;29.60;99.90
8214;DHT22;4148;47.974;7.824;2022-08-23T16:11:17;29.70;99.90
8214;DHT22;4148;47.974;7.824;2022-08-23T16:13:47;29.70;99.90
8214;DHT22;4148;47.974;7.824;2022-08-23T16:16:22;29.60;99.90
8214;DHT22;4148;47.974;7.824;2022-08-23T16:18:51;29.50;99.90
8214;DHT22;4148;47.974;7.824;2022-08-23T16:21:20;29.50;99.90
8214;DHT22;4148;47.974;7.824;2022-08-23T16:23:48;29.50;99.90
8214;DHT22;4148;47.974;7.824;2022-08-23T16:26:20;29.50;99.90
8214;DHT22;4148;47.974;7.824;2022-08-23T16:29:00;29.40;99.90
8214;DHT22;4148;47.974;7.824;2022-08-23T16:31:28;29.30;99.90
8214;DHT22;4148;47.974;7.824;2022-08-23T16:34:09;29.30;99.90
8214;DHT22;4148;47.974;7.824;2022-08-23T16:36:40;29.30;99.90
8214;DHT22;4148;47.974;7.824;2022-08-23T16:39:09;29.30;99.90
8214;DHT22;4148;47.974;7.824;2022-08-23T16:41:39;29.20;99.90
8214;DHT22;4148;47.974;7.824;2022-08-23T16:44:07;29.20;99.90
8214;DHT22;4148;47.974;7.824;2022-08-23T16:46:35;29.20;99.90
8214;DHT22;4148;47.974;7.824;2022-08-23T16:49:07;29.10;99.90